Terminal Aerodrome Forecast
Issued by NWS

Home | Current Version | Previous Version | Text Only | Print | Product List | Glossary On
Versions: 1 2 3 4 5 6 7 8 9 10 11 12 13
329
FTUS43 KTOP 190643 AAA
TAFMHK
TAF AMD
KMHK 190643Z 1907/2006 VRB02KT P6SM SKC
      TEMPO 1907/1911 4SM BR
     FM191800 18010KT P6SM SKC=

USA.gov is the U.S. government's official web portal to all federal, state and local government web resources and services.